sensor_id;sensor_type;location;lat;lon;timestamp;pressure;altitude;pressure_sealevel;temperature;humidity
47104;BME280;32853;52.164;5.400;2022-08-30T00:02:17;102152.47;;;18.09;100.00
47104;BME280;32853;52.164;5.400;2022-08-30T00:04:43;101992.41;;;17.30;100.00
47104;BME280;32853;52.164;5.400;2022-08-30T00:07:09;102038.22;;;17.48;100.00
47104;BME280;32853;52.164;5.400;2022-08-30T00:09:34;102142.50;;;17.97;100.00
47104;BME280;32853;52.164;5.400;2022-08-30T00:11:59;101955.13;;;16.81;100.00
47104;BME280;32853;52.164;5.400;2022-08-30T00:14:25;102027.94;;;17.41;100.00
47104;BME280;32853;52.164;5.400;2022-08-30T00:16:51;102136.97;;;18.02;100.00
47104;BME280;32853;52.164;5.400;2022-08-30T00:19:17;102112.75;;;17.92;100.00
47104;BME280;32853;52.164;5.400;2022-08-30T00:21:47;102092.19;;;17.80;100.00
47104;BME280;32853;52.164;5.400;2022-08-30T00:24:13;102141.72;;;18.12;100.00
47104;BME280;32853;52.164;5.400;2022-08-30T00:26:38;102100.47;;;17.74;100.00
47104;BME280;32853;52.164;5.400;2022-08-30T00:29:03;102146.69;;;18.01;100.00
47104;BME280;32853;52.164;5.400;2022-08-30T00:31:32;102096.06;;;17.73;100.00
47104;BME280;32853;52.164;5.400;2022-08-30T00:33:57;102085.66;;;17.51;100.00
47104;BME280;32853;52.164;5.400;2022-08-30T00:36:23;102130.25;;;17.77;100.00
47104;BME280;32853;52.164;5.400;2022-08-30T00:38:48;102092.47;;;17.37;100.00
47104;BME280;32853;52.164;5.400;2022-08-30T00:41:13;102130.91;;;17.63;100.00
47104;BME280;32853;52.164;5.400;2022-08-30T00:43:49;102035.31;;;16.99;100.00
47104;BME280;32853;52.164;5.400;2022-08-30T00:46:14;102053.41;;;17.25;100.00
47104;BME280;32853;52.164;5.400;2022-08-30T00:48:42;102045.19;;;17.31;100.00
47104;BME280;32853;52.164;5.400;2022-08-30T00:51:12;102001.97;;;16.96;100.00
47104;BME280;32853;52.164;5.400;2022-08-30T00:53:42;102044.44;;;16.92;100.00
47104;BME280;32853;52.164;5.400;2022-08-30T00:56:28;102135.63;;;17.57;100.00
47104;BME280;32853;52.164;5.400;2022-08-30T00:58:56;102114.44;;;17.21;100.00
47104;BME280;32853;52.164;5.400;2022-08-30T01:01:26;102119.06;;;17.34;100.00
47104;BME280;32853;52.164;5.400;2022-08-30T01:03:52;102128.84;;;17.51;100.00
47104;BME280;32853;52.164;5.400;2022-08-30T01:06:18;102134.63;;;17.59;100.00
47104;BME280;32853;52.164;5.400;2022-08-30T01:08:44;102143.41;;;17.60;100.00
47104;BME280;32853;52.164;5.400;2022-08-30T01:11:32;102147.06;;;17.57;100.00
47104;BME280;32853;52.164;5.400;2022-08-30T01:14:08;102107.72;;;17.32;100.00
47104;BME280;32853;52.164;5.400;2022-08-30T01:16:44;102074.06;;;17.17;100.00
47104;BME280;32853;52.164;5.400;2022-08-30T01:22:27;102139.38;;;17.53;100.00
47104;BME280;32853;52.164;5.400;2022-08-30T01:28:06;102102.53;;;17.12;100.00
47104;BME280;32853;52.164;5.400;2022-08-30T01:30:42;102147.72;;;17.43;100.00
47104;BME280;32853;52.164;5.400;2022-08-30T01:33:08;102075.97;;;16.96;100.00
47104;BME280;32853;52.164;5.400;2022-08-30T01:35:45;101966.81;;;16.19;100.00
47104;BME280;32853;52.164;5.400;2022-08-30T01:38:11;102072.31;;;16.99;100.00
47104;BME280;32853;52.164;5.400;2022-08-30T01:40:49;102107.31;;;17.23;100.00
47104;BME280;32853;52.164;5.400;2022-08-30T01:46:49;102123.25;;;17.21;100.00
47104;BME280;32853;52.164;5.400;2022-08-30T01:49:18;102107.72;;;17.13;100.00
47104;BME280;32853;52.164;5.400;2022-08-30T01:51:44;102149.25;;;17.30;100.00
47104;BME280;32853;52.164;5.400;2022-08-30T01:54:10;102131.59;;;17.12;100.00
47104;BME280;32853;52.164;5.400;2022-08-30T01:56:35;101966.38;;;16.09;100.00
47104;BME280;32853;52.164;5.400;2022-08-30T01:59:01;102039.63;;;16.62;100.00
47104;BME280;32853;52.164;5.400;2022-08-30T02:01:27;102164.38;;;17.27;100.00
47104;BME280;32853;52.164;5.400;2022-08-30T02:03:55;101949.69;;;16.09;100.00
47104;BME280;32853;52.164;5.400;2022-08-30T02:06:21;102152.41;;;17.20;100.00
47104;BME280;32853;52.164;5.400;2022-08-30T02:08:48;102077.31;;;16.86;100.00
47104;BME280;32853;52.164;5.400;2022-08-30T02:11:14;102053.22;;;16.73;100.00
47104;BME280;32853;52.164;5.400;2022-08-30T02:13:42;102043.69;;;16.50;100.00
47104;BME280;32853;52.164;5.400;2022-08-30T02:16:12;102043.19;;;16.61;100.00
47104;BME280;32853;52.164;5.400;2022-08-30T02:18:39;102142.25;;;17.29;100.00
47104;BME280;32853;52.164;5.400;2022-08-30T02:21:05;102122.97;;;17.08;100.00
47104;BME280;32853;52.164;5.400;2022-08-30T02:23:31;102101.09;;;17.05;100.00
47104;BME280;32853;52.164;5.400;2022-08-30T02:25:56;102133.09;;;17.18;100.00
47104;BME280;32853;52.164;5.400;2022-08-30T02:28:22;102112.03;;;16.97;100.00
47104;BME280;32853;52.164;5.400;2022-08-30T02:30:47;102093.78;;;16.72;100.00
47104;BME280;32853;52.164;5.400;2022-08-30T02:33:13;101947.34;;;15.82;100.00
47104;BME280;32853;52.164;5.400;2022-08-30T02:35:41;102030.53;;;16.30;100.00
47104;BME280;32853;52.164;5.400;2022-08-30T02:38:07;101975.69;;;15.97;100.00
47104;BME280;32853;52.164;5.400;2022-08-30T02:40:33;102130.53;;;16.97;100.00
47104;BME280;32853;52.164;5.400;2022-08-30T02:43:03;102119.72;;;16.83;100.00
47104;BME280;32853;52.164;5.400;2022-08-30T02:45:31;102141.25;;;17.13;100.00
47104;BME280;32853;52.164;5.400;2022-08-30T02:47:57;102136.22;;;17.07;100.00
47104;BME280;32853;52.164;5.400;2022-08-30T02:50:27;102062.50;;;16.63;100.00
47104;BME280;32853;52.164;5.400;2022-08-30T02:52:52;102047.72;;;16.39;100.00
47104;BME280;32853;52.164;5.400;2022-08-30T02:55:18;101992.78;;;16.09;100.00
47104;BME280;32853;52.164;5.400;2022-08-30T02:57:44;102066.25;;;16.58;100.00
47104;BME280;32853;52.164;5.400;2022-08-30T03:00:14;102123.66;;;16.93;100.00
47104;BME280;32853;52.164;5.400;2022-08-30T03:02:40;102072.53;;;16.75;100.00
47104;BME280;32853;52.164;5.400;2022-08-30T03:05:10;102086.38;;;16.80;100.00
47104;BME280;32853;52.164;5.400;2022-08-30T03:07:38;102055.22;;;16.68;100.00
47104;BME280;32853;52.164;5.400;2022-08-30T03:10:04;101960.13;;;15.91;100.00
47104;BME280;32853;52.164;5.400;2022-08-30T03:12:30;101997.97;;;16.11;100.00
47104;BME280;32853;52.164;5.400;2022-08-30T03:14:57;101946.38;;;15.64;100.00
47104;BME280;32853;52.164;5.400;2022-08-30T03:17:22;102079.22;;;16.43;100.00
47104;BME280;32853;52.164;5.400;2022-08-30T03:19:48;102100.72;;;16.54;100.00
47104;BME280;32853;52.164;5.400;2022-08-30T03:22:13;102061.56;;;16.25;100.00
47104;BME280;32853;52.164;5.400;2022-08-30T03:24:39;102017.84;;;15.99;100.00
47104;BME280;32853;52.164;5.400;2022-08-30T03:27:04;102120.19;;;16.72;100.00
47104;BME280;32853;52.164;5.400;2022-08-30T03:29:31;102132.13;;;16.61;100.00
47104;BME280;32853;52.164;5.400;2022-08-30T03:32:09;102102.06;;;16.44;100.00
47104;BME280;32853;52.164;5.400;2022-08-30T03:34:36;102133.00;;;16.61;100.00
47104;BME280;32853;52.164;5.400;2022-08-30T03:37:01;102045.06;;;16.20;100.00
47104;BME280;32853;52.164;5.400;2022-08-30T03:39:41;102122.56;;;16.58;100.00
47104;BME280;32853;52.164;5.400;2022-08-30T03:42:07;102120.94;;;16.55;100.00
47104;BME280;32853;52.164;5.400;2022-08-30T03:44:32;102084.78;;;16.17;100.00
47104;BME280;32853;52.164;5.400;2022-08-30T03:46:57;102103.53;;;16.31;100.00
47104;BME280;32853;52.164;5.400;2022-08-30T03:49:22;102050.91;;;16.08;100.00
47104;BME280;32853;52.164;5.400;2022-08-30T03:51:49;102007.03;;;15.64;100.00
47104;BME280;32853;52.164;5.400;2022-08-30T03:54:16;102118.84;;;16.43;100.00
47104;BME280;32853;52.164;5.400;2022-08-30T03:56:42;102062.09;;;16.13;100.00
47104;BME280;32853;52.164;5.400;2022-08-30T03:59:07;102130.41;;;16.41;100.00
47104;BME280;32853;52.164;5.400;2022-08-30T04:01:33;102129.66;;;16.37;100.00
47104;BME280;32853;52.164;5.400;2022-08-30T04:03:58;102096.00;;;16.22;100.00
47104;BME280;32853;52.164;5.400;2022-08-30T04:06:24;102118.84;;;16.43;100.00
47104;BME280;32853;52.164;5.400;2022-08-30T04:08:50;102071.06;;;16.09;100.00
47104;BME280;32853;52.164;5.400;2022-08-30T04:11:15;102103.16;;;16.20;100.00
47104;BME280;32853;52.164;5.400;2022-08-30T04:13:42;102135.69;;;16.41;100.00
47104;BME280;32853;52.164;5.400;2022-08-30T04:16:08;102125.97;;;16.41;100.00
47104;BME280;32853;52.164;5.400;2022-08-30T04:18:34;102099.13;;;16.32;100.00
47104;BME280;32853;52.164;5.400;2022-08-30T04:21:02;102118.84;;;16.43;100.00
47104;BME280;32853;52.164;5.400;2022-08-30T04:23:29;102059.72;;;16.07;100.00
47104;BME280;32853;52.164;5.400;2022-08-30T04:25:55;102065.03;;;15.85;100.00
47104;BME280;32853;52.164;5.400;2022-08-30T04:28:21;102006.84;;;15.47;100.00
47104;BME280;32853;52.164;5.400;2022-08-30T04:30:46;102078.06;;;15.89;100.00
47104;BME280;32853;52.164;5.400;2022-08-30T04:33:13;102135.13;;;16.12;100.00
47104;BME280;32853;52.164;5.400;2022-08-30T04:35:44;102127.28;;;16.11;100.00
47104;BME280;32853;52.164;5.400;2022-08-30T04:38:10;102077.59;;;15.80;100.00
47104;BME280;32853;52.164;5.400;2022-08-30T04:40:40;102034.44;;;15.38;100.00
47104;BME280;32853;52.164;5.400;2022-08-30T04:43:10;102128.78;;;16.16;100.00
47104;BME280;32853;52.164;5.400;2022-08-30T04:45:41;102149.44;;;16.07;100.00
47104;BME280;32853;52.164;5.400;2022-08-30T04:48:07;102082.25;;;15.73;100.00
47104;BME280;32853;52.164;5.400;2022-08-30T04:50:33;101993.41;;;15.11;100.00
47104;BME280;32853;52.164;5.400;2022-08-30T04:52:59;102022.00;;;15.42;100.00
47104;BME280;32853;52.164;5.400;2022-08-30T04:55:24;102144.34;;;16.02;100.00
47104;BME280;32853;52.164;5.400;2022-08-30T04:58:00;102150.34;;;16.06;100.00
47104;BME280;32853;52.164;5.400;2022-08-30T05:00:27;102110.81;;;15.84;100.00
47104;BME280;32853;52.164;5.400;2022-08-30T05:02:53;102152.34;;;16.01;100.00
47104;BME280;32853;52.164;5.400;2022-08-30T05:05:18;102099.50;;;15.60;100.00
47104;BME280;32853;52.164;5.400;2022-08-30T05:08:11;102149.78;;;15.99;100.00
47104;BME280;32853;52.164;5.400;2022-08-30T05:10:41;102068.03;;;15.33;100.00
47104;BME280;32853;52.164;5.400;2022-08-30T05:13:08;102152.06;;;16.07;100.00
47104;BME280;32853;52.164;5.400;2022-08-30T05:15:35;102153.00;;;16.06;100.00
47104;BME280;32853;52.164;5.400;2022-08-30T05:18:02;102108.59;;;15.75;100.00
47104;BME280;32853;52.164;5.400;2022-08-30T05:20:28;102089.28;;;15.51;100.00
47104;BME280;32853;52.164;5.400;2022-08-30T05:22:53;102165.34;;;16.05;100.00
47104;BME280;32853;52.164;5.400;2022-08-30T05:25:22;102027.28;;;15.42;100.00
47104;BME280;32853;52.164;5.400;2022-08-30T05:27:50;102105.19;;;15.71;100.00
47104;BME280;32853;52.164;5.400;2022-08-30T05:30:17;102081.34;;;15.52;100.00
47104;BME280;32853;52.164;5.400;2022-08-30T05:32:46;101972.38;;;14.88;100.00
47104;BME280;32853;52.164;5.400;2022-08-30T05:35:13;102151.41;;;16.02;100.00
47104;BME280;32853;52.164;5.400;2022-08-30T05:37:39;102172.69;;;15.77;100.00
47104;BME280;32853;52.164;5.400;2022-08-30T05:40:10;102179.72;;;15.98;100.00
47104;BME280;32853;52.164;5.400;2022-08-30T05:42:37;102189.16;;;16.04;100.00
47104;BME280;32853;52.164;5.400;2022-08-30T05:45:04;102131.63;;;15.91;100.00
47104;BME280;32853;52.164;5.400;2022-08-30T05:47:30;102050.44;;;15.34;100.00
47104;BME280;32853;52.164;5.400;2022-08-30T05:49:55;102126.47;;;15.45;100.00
47104;BME280;32853;52.164;5.400;2022-08-30T05:52:20;102147.16;;;15.77;100.00
47104;BME280;32853;52.164;5.400;2022-08-30T05:54:56;102157.88;;;15.94;100.00
47104;BME280;32853;52.164;5.400;2022-08-30T05:57:31;102119.84;;;15.78;100.00
47104;BME280;32853;52.164;5.400;2022-08-30T06:00:00;102149.88;;;15.96;100.00
47104;BME280;32853;52.164;5.400;2022-08-30T06:02:26;102168.09;;;16.02;100.00
47104;BME280;32853;52.164;5.400;2022-08-30T06:04:53;102114.31;;;15.84;100.00
47104;BME280;32853;52.164;5.400;2022-08-30T06:07:25;102179.16;;;16.32;100.00
47104;BME280;32853;52.164;5.400;2022-08-30T06:09:51;102184.56;;;16.29;100.00
47104;BME280;32853;52.164;5.400;2022-08-30T06:12:16;102179.25;;;16.31;100.00
47104;BME280;32853;52.164;5.400;2022-08-30T06:14:44;102141.06;;;16.17;100.00
47104;BME280;32853;52.164;5.400;2022-08-30T06:17:09;102183.53;;;16.33;100.00
47104;BME280;32853;52.164;5.400;2022-08-30T06:19:35;102187.59;;;16.40;100.00
47104;BME280;32853;52.164;5.400;2022-08-30T06:22:02;102125.19;;;16.19;100.00
47104;BME280;32853;52.164;5.400;2022-08-30T06:24:28;102142.59;;;16.43;100.00
47104;BME280;32853;52.164;5.400;2022-08-30T06:26:53;102003.47;;;15.44;100.00
47104;BME280;32853;52.164;5.400;2022-08-30T06:29:20;102176.19;;;16.60;100.00
47104;BME280;32853;52.164;5.400;2022-08-30T06:31:46;102149.78;;;16.40;100.00
47104;BME280;32853;52.164;5.400;2022-08-30T06:34:12;102184.19;;;16.59;100.00
47104;BME280;32853;52.164;5.400;2022-08-30T06:36:37;102115.88;;;16.31;100.00
47104;BME280;32853;52.164;5.400;2022-08-30T06:39:04;102142.94;;;16.36;100.00
47104;BME280;32853;52.164;5.400;2022-08-30T06:41:32;102029.03;;;15.84;100.00
47104;BME280;32853;52.164;5.400;2022-08-30T06:44:00;102102.22;;;16.41;100.00
47104;BME280;32853;52.164;5.400;2022-08-30T06:46:29;102120.88;;;16.57;100.00
47104;BME280;32853;52.164;5.400;2022-08-30T06:48:55;102136.72;;;16.77;100.00
47104;BME280;32853;52.164;5.400;2022-08-30T06:51:23;102115.44;;;16.80;100.00
47104;BME280;32853;52.164;5.400;2022-08-30T06:53:52;102007.31;;;16.18;100.00
47104;BME280;32853;52.164;5.400;2022-08-30T06:56:20;102078.38;;;16.62;100.00
47104;BME280;32853;52.164;5.400;2022-08-30T06:58:49;102189.13;;;17.45;100.00
47104;BME280;32853;52.164;5.400;2022-08-30T07:01:20;102168.19;;;17.21;100.00
47104;BME280;32853;52.164;5.400;2022-08-30T07:03:46;102121.16;;;17.28;100.00
47104;BME280;32853;52.164;5.400;2022-08-30T07:06:12;102030.44;;;16.71;100.00
47104;BME280;32853;52.164;5.400;2022-08-30T07:08:38;102070.53;;;16.99;100.00
47104;BME280;32853;52.164;5.400;2022-08-30T07:11:05;102082.13;;;17.33;100.00
47104;BME280;32853;52.164;5.400;2022-08-30T07:13:32;102190.06;;;18.16;100.00
47104;BME280;32853;52.164;5.400;2022-08-30T07:16:08;101979.50;;;16.69;100.00
47104;BME280;32853;52.164;5.400;2022-08-30T07:18:41;102103.31;;;17.69;100.00
47104;BME280;32853;52.164;5.400;2022-08-30T07:21:20;102032.34;;;17.24;100.00
47104;BME280;32853;52.164;5.400;2022-08-30T07:23:50;102179.81;;;18.44;100.00
47104;BME280;32853;52.164;5.400;2022-08-30T07:26:18;102192.91;;;18.65;100.00
47104;BME280;32853;52.164;5.400;2022-08-30T07:28:48;102141.19;;;18.40;100.00
47104;BME280;32853;52.164;5.400;2022-08-30T07:31:15;102187.66;;;18.63;100.00
47104;BME280;32853;52.164;5.400;2022-08-30T07:33:40;102176.44;;;18.75;100.00
47104;BME280;32853;52.164;5.400;2022-08-30T07:36:14;102106.88;;;18.37;100.00
47104;BME280;32853;52.164;5.400;2022-08-30T07:38:42;102128.75;;;18.75;100.00
47104;BME280;32853;52.164;5.400;2022-08-30T07:41:07;102087.25;;;18.41;100.00
47104;BME280;32853;52.164;5.400;2022-08-30T07:43:35;102192.81;;;19.32;100.00
47104;BME280;32853;52.164;5.400;2022-08-30T07:46:05;102145.03;;;19.01;100.00
47104;BME280;32853;52.164;5.400;2022-08-30T07:48:33;102184.00;;;19.32;100.00
47104;BME280;32853;52.164;5.400;2022-08-30T07:51:02;102180.75;;;19.42;100.00
47104;BME280;32853;52.164;5.400;2022-08-30T07:53:38;102186.06;;;19.42;100.00
47104;BME280;32853;52.164;5.400;2022-08-30T07:56:03;102063.34;;;18.76;100.00
47104;BME280;32853;52.164;5.400;2022-08-30T07:58:29;102181.09;;;19.52;100.00
47104;BME280;32853;52.164;5.400;2022-08-30T08:00:54;102118.50;;;19.16;100.00
47104;BME280;32853;52.164;5.400;2022-08-30T08:03:25;102040.50;;;18.73;100.00
47104;BME280;32853;52.164;5.400;2022-08-30T08:05:52;102184.78;;;19.65;100.00
47104;BME280;32853;52.164;5.400;2022-08-30T08:08:22;102205.84;;;19.84;100.00
47104;BME280;32853;52.164;5.400;2022-08-30T08:10:50;102034.59;;;18.84;100.00
47104;BME280;32853;52.164;5.400;2022-08-30T08:13:17;102170.22;;;19.72;100.00
47104;BME280;32853;52.164;5.400;2022-08-30T08:15:50;102154.53;;;19.84;100.00
47104;BME280;32853;52.164;5.400;2022-08-30T08:18:30;102094.50;;;19.81;100.00
47104;BME280;32853;52.164;5.400;2022-08-30T08:20:56;102150.69;;;20.19;100.00
47104;BME280;32853;52.164;5.400;2022-08-30T08:23:28;102184.09;;;20.53;100.00
47104;BME280;32853;52.164;5.400;2022-08-30T08:25:54;102193.03;;;20.67;100.00
47104;BME280;32853;52.164;5.400;2022-08-30T08:28:21;102204.22;;;20.72;100.00
47104;BME280;32853;52.164;5.400;2022-08-30T08:30:56;102160.72;;;20.58;100.00
47104;BME280;32853;52.164;5.400;2022-08-30T08:33:22;102130.38;;;20.63;100.00
47104;BME280;32853;52.164;5.400;2022-08-30T08:35:48;102127.03;;;20.45;100.00
47104;BME280;32853;52.164;5.400;2022-08-30T08:38:14;102148.69;;;20.67;100.00
47104;BME280;32853;52.164;5.400;2022-08-30T08:41:01;102168.63;;;21.03;100.00
47104;BME280;32853;52.164;5.400;2022-08-30T08:43:32;102145.44;;;20.91;98.71
47104;BME280;32853;52.164;5.400;2022-08-30T08:46:16;102108.53;;;20.86;99.76
47104;BME280;32853;52.164;5.400;2022-08-30T08:48:48;102144.69;;;21.03;95.42
47104;BME280;32853;52.164;5.400;2022-08-30T08:51:18;102113.09;;;20.84;95.20
47104;BME280;32853;52.164;5.400;2022-08-30T08:54:20;102193.19;;;21.49;92.88
47104;BME280;32853;52.164;5.400;2022-08-30T08:56:49;102179.59;;;21.54;95.44
47104;BME280;32853;52.164;5.400;2022-08-30T08:59:15;102169.97;;;21.65;86.56
47104;BME280;32853;52.164;5.400;2022-08-30T09:01:40;102195.19;;;21.87;83.85
47104;BME280;32853;52.164;5.400;2022-08-30T09:04:12;102143.03;;;21.43;85.07
47104;BME280;32853;52.164;5.400;2022-08-30T09:06:54;102189.50;;;21.79;86.79
47104;BME280;32853;52.164;5.400;2022-08-30T09:09:26;102156.50;;;21.54;88.66
47104;BME280;32853;52.164;5.400;2022-08-30T09:11:56;102184.72;;;21.84;88.79
47104;BME280;32853;52.164;5.400;2022-08-30T09:14:25;102195.53;;;21.95;87.76
47104;BME280;32853;52.164;5.400;2022-08-30T09:17:06;102199.66;;;22.13;88.33
47104;BME280;32853;52.164;5.400;2022-08-30T09:22:21;102191.25;;;22.19;84.67
47104;BME280;32853;52.164;5.400;2022-08-30T09:24:50;102195.06;;;22.15;85.13
47104;BME280;32853;52.164;5.400;2022-08-30T09:27:20;102031.53;;;21.38;82.98
47104;BME280;32853;52.164;5.400;2022-08-30T09:29:55;102172.91;;;22.27;85.67
47104;BME280;32853;52.164;5.400;2022-08-30T09:32:38;102189.81;;;22.41;82.92
47104;BME280;32853;52.164;5.400;2022-08-30T09:35:08;102194.47;;;22.50;80.55
47104;BME280;32853;52.164;5.400;2022-08-30T09:37:52;102091.84;;;21.92;80.31
47104;BME280;32853;52.164;5.400;2022-08-30T09:40:39;102184.81;;;22.74;80.30
47104;BME280;32853;52.164;5.400;2022-08-30T09:43:32;102187.66;;;22.71;77.70
47104;BME280;32853;52.164;5.400;2022-08-30T09:56:10;102144.81;;;22.87;72.16
47104;BME280;32853;52.164;5.400;2022-08-30T10:01:49;102203.94;;;23.06;70.63
47104;BME280;32853;52.164;5.400;2022-08-30T10:04:39;102202.66;;;22.99;65.92
47104;BME280;32853;52.164;5.400;2022-08-30T10:07:31;102206.59;;;23.06;64.22
47104;BME280;32853;52.164;5.400;2022-08-30T10:10:14;102191.00;;;23.00;64.06
47104;BME280;32853;52.164;5.400;2022-08-30T10:13:14;102151.53;;;22.54;62.96
47104;BME280;32853;52.164;5.400;2022-08-30T10:15:59;102173.81;;;22.79;66.48
47104;BME280;32853;52.164;5.400;2022-08-30T10:18:53;102186.34;;;23.40;67.20
47104;BME280;32853;52.164;5.400;2022-08-30T10:21:57;102188.63;;;23.21;67.48
47104;BME280;32853;52.164;5.400;2022-08-30T10:24:30;102104.34;;;22.93;67.73
47104;BME280;32853;52.164;5.400;2022-08-30T10:27:13;102194.63;;;23.48;67.33
47104;BME280;32853;52.164;5.400;2022-08-30T10:29:54;102186.44;;;23.75;65.90
47104;BME280;32853;52.164;5.400;2022-08-30T10:32:28;102025.91;;;22.83;63.33
47104;BME280;32853;52.164;5.400;2022-08-30T10:37:40;102193.72;;;23.97;62.39
47104;BME280;32853;52.164;5.400;2022-08-30T10:40:30;102184.69;;;23.87;62.61
47104;BME280;32853;52.164;5.400;2022-08-30T10:43:47;102171.75;;;23.81;60.47
47104;BME280;32853;52.164;5.400;2022-08-30T10:49:11;102171.81;;;23.92;60.40
47104;BME280;32853;52.164;5.400;2022-08-30T10:51:59;102177.81;;;24.31;58.92
47104;BME280;32853;52.164;5.400;2022-08-30T10:54:35;102184.16;;;24.41;58.57
47104;BME280;32853;52.164;5.400;2022-08-30T10:57:08;102114.53;;;23.96;56.34
47104;BME280;32853;52.164;5.400;2022-08-30T10:59:37;102145.03;;;24.16;58.62
47104;BME280;32853;52.164;5.400;2022-08-30T11:10:56;102181.69;;;24.84;55.01
47104;BME280;32853;52.164;5.400;2022-08-30T11:13:27;102127.28;;;24.39;54.77
47104;BME280;32853;52.164;5.400;2022-08-30T11:16:05;102170.84;;;24.75;55.52
47104;BME280;32853;52.164;5.400;2022-08-30T11:18:46;102179.59;;;24.77;54.99
47104;BME280;32853;52.164;5.400;2022-08-30T11:24:04;102168.44;;;25.28;55.22
47104;BME280;32853;52.164;5.400;2022-08-30T11:26:56;102165.22;;;25.34;55.80
47104;BME280;32853;52.164;5.400;2022-08-30T11:29:51;102131.78;;;25.28;54.26
47104;BME280;32853;52.164;5.400;2022-08-30T11:32:18;102168.78;;;25.12;53.71
47104;BME280;32853;52.164;5.400;2022-08-30T11:34:58;102154.09;;;25.06;53.46
47104;BME280;32853;52.164;5.400;2022-08-30T11:37:34;102168.63;;;25.36;53.25
47104;BME280;32853;52.164;5.400;2022-08-30T11:42:52;102163.44;;;25.66;53.27
47104;BME280;32853;52.164;5.400;2022-08-30T11:47:48;102164.75;;;26.04;52.45
47104;BME280;32853;52.164;5.400;2022-08-30T11:50:28;102161.50;;;26.00;53.51
47104;BME280;32853;52.164;5.400;2022-08-30T11:56:19;102144.94;;;25.74;55.55
47104;BME280;32853;52.164;5.400;2022-08-30T12:03:58;102146.16;;;25.59;56.60
47104;BME280;32853;52.164;5.400;2022-08-30T12:09:08;102126.00;;;25.87;55.36
47104;BME280;32853;52.164;5.400;2022-08-30T12:14:04;102109.78;;;25.02;56.89
47104;BME280;32853;52.164;5.400;2022-08-30T12:16:43;102140.75;;;25.27;59.33
47104;BME280;32853;52.164;5.400;2022-08-30T12:19:30;102013.50;;;24.57;57.03
47104;BME280;32853;52.164;5.400;2022-08-30T12:22:00;102070.84;;;24.87;57.45
47104;BME280;32853;52.164;5.400;2022-08-30T12:24:35;102131.66;;;25.30;58.68
47104;BME280;32853;52.164;5.400;2022-08-30T12:27:25;102134.22;;;25.20;59.18
47104;BME280;32853;52.164;5.400;2022-08-30T12:29:54;102134.97;;;25.11;57.75
47104;BME280;32853;52.164;5.400;2022-08-30T12:32:22;102121.13;;;25.38;56.33
47104;BME280;32853;52.164;5.400;2022-08-30T12:34:52;102129.66;;;25.43;56.55
47104;BME280;32853;52.164;5.400;2022-08-30T12:37:29;102117.38;;;25.40;58.07
47104;BME280;32853;52.164;5.400;2022-08-30T12:40:08;102088.53;;;25.33;56.22
47104;BME280;32853;52.164;5.400;2022-08-30T12:42:37;102131.41;;;25.76;57.67
47104;BME280;32853;52.164;5.400;2022-08-30T12:45:10;102070.59;;;24.90;56.44
47104;BME280;32853;52.164;5.400;2022-08-30T12:47:44;102130.97;;;25.48;57.00
47104;BME280;32853;52.164;5.400;2022-08-30T12:50:21;102098.31;;;25.23;55.95
47104;BME280;32853;52.164;5.400;2022-08-30T12:53:01;102139.44;;;24.99;57.82
47104;BME280;32853;52.164;5.400;2022-08-30T12:55:34;102102.13;;;24.75;57.93
47104;BME280;32853;52.164;5.400;2022-08-30T12:58:07;102114.78;;;24.96;56.55
47104;BME280;32853;52.164;5.400;2022-08-30T13:00:42;102113.69;;;24.76;56.11
47104;BME280;32853;52.164;5.400;2022-08-30T13:03:34;102094.38;;;24.61;55.54
47104;BME280;32853;52.164;5.400;2022-08-30T13:06:02;102023.06;;;24.26;56.54
47104;BME280;32853;52.164;5.400;2022-08-30T13:11:14;102104.53;;;25.01;54.39
47104;BME280;32853;52.164;5.400;2022-08-30T13:13:53;102075.25;;;24.77;54.85
47104;BME280;32853;52.164;5.400;2022-08-30T13:16:36;102082.53;;;24.86;54.34
47104;BME280;32853;52.164;5.400;2022-08-30T13:19:35;102115.84;;;24.71;54.81
47104;BME280;32853;52.164;5.400;2022-08-30T13:22:02;102096.16;;;24.72;55.45
47104;BME280;32853;52.164;5.400;2022-08-30T13:24:28;102093.84;;;24.45;55.76
47104;BME280;32853;52.164;5.400;2022-08-30T13:26:55;102117.91;;;24.33;56.33
47104;BME280;32853;52.164;5.400;2022-08-30T13:29:25;102069.41;;;24.38;55.92
47104;BME280;32853;52.164;5.400;2022-08-30T13:31:53;102096.78;;;24.86;55.08
47104;BME280;32853;52.164;5.400;2022-08-30T13:34:18;102007.53;;;24.65;53.75
47104;BME280;32853;52.164;5.400;2022-08-30T13:36:53;102061.25;;;24.96;52.43
47104;BME280;32853;52.164;5.400;2022-08-30T13:39:19;102054.41;;;24.91;53.41
47104;BME280;32853;52.164;5.400;2022-08-30T13:41:45;102072.31;;;24.91;53.21
47104;BME280;32853;52.164;5.400;2022-08-30T13:44:13;102059.44;;;24.74;53.14
47104;BME280;32853;52.164;5.400;2022-08-30T13:46:40;102091.19;;;25.44;52.65
47104;BME280;32853;52.164;5.400;2022-08-30T13:49:17;102095.44;;;25.78;51.75
47104;BME280;32853;52.164;5.400;2022-08-30T13:51:43;102061.38;;;25.69;51.53
47104;BME280;32853;52.164;5.400;2022-08-30T13:54:08;102049.53;;;25.51;51.06
47104;BME280;32853;52.164;5.400;2022-08-30T13:56:40;102089.16;;;25.25;51.69
47104;BME280;32853;52.164;5.400;2022-08-30T13:59:05;102061.97;;;25.09;51.85
47104;BME280;32853;52.164;5.400;2022-08-30T14:01:31;102055.25;;;25.14;51.79
47104;BME280;32853;52.164;5.400;2022-08-30T14:04:07;102092.00;;;25.12;51.70
47104;BME280;32853;52.164;5.400;2022-08-30T14:06:33;102100.25;;;25.32;52.43